createdAt,value
2018-06-15T00:01:08.178Z,10.13
2018-06-15T00:03:37.202Z,9.40
2018-06-15T00:06:06.291Z,10.27
2018-06-15T00:08:35.321Z,8.23
2018-06-15T00:11:04.359Z,11.80
2018-06-15T00:13:33.417Z,9.53
2018-06-15T00:16:02.486Z,8.50
2018-06-15T00:18:31.518Z,10.17
2018-06-15T00:21:00.562Z,12.80
2018-06-15T00:23:29.614Z,12.23
2018-06-15T00:25:58.701Z,10.13
2018-06-15T00:28:27.718Z,9.50
2018-06-15T00:30:56.754Z,14.07
2018-06-15T00:33:25.780Z,10.77
2018-06-15T00:35:54.823Z,12.80
2018-06-15T00:38:23.938Z,15.80
2018-06-15T00:40:52.946Z,13.30
2018-06-15T00:43:21.962Z,7.07
2018-06-15T00:45:50.580Z,8.03
2018-06-15T00:48:19.628Z,8.37
2018-06-15T00:50:48.668Z,8.23
2018-06-15T00:53:17.738Z,10.63
2018-06-15T00:55:46.351Z,9.93
2018-06-15T00:58:16.076Z,8.70
2018-06-15T01:00:45.136Z,10.07
2018-06-15T01:03:14.215Z,8.40
2018-06-15T01:05:42.765Z,7.83
2018-06-15T01:08:11.799Z,8.97
2018-06-15T01:10:40.809Z,7.97
2018-06-15T01:13:09.865Z,8.83
2018-06-15T01:15:38.428Z,11.00
2018-06-15T01:18:07.455Z,9.83
2018-06-15T01:20:36.529Z,10.70
2018-06-15T01:23:05.121Z,7.97
2018-06-15T01:25:34.189Z,8.53
2018-06-15T01:28:03.201Z,11.13
2018-06-15T01:30:31.780Z,8.20
2018-06-15T01:33:00.918Z,7.20
2018-06-15T01:35:29.955Z,9.20
2018-06-15T01:37:59.016Z,8.30
2018-06-15T01:40:28.090Z,7.60
2018-06-15T01:42:57.128Z,9.03
2018-06-15T01:45:26.171Z,11.20
2018-06-15T01:47:55.167Z,7.67
2018-06-15T01:50:24.185Z,8.10
2018-06-15T01:52:53.524Z,9.40
2018-06-15T01:55:22.563Z,8.00
2018-06-15T01:57:51.953Z,12.40
2018-06-15T02:00:20.988Z,10.50
2018-06-15T02:02:50.032Z,8.20
2018-06-15T02:05:19.024Z,8.00
2018-06-15T02:07:48.129Z,9.27
2018-06-15T02:10:17.122Z,7.97
2018-06-15T02:12:46.196Z,8.70
2018-06-15T02:15:15.212Z,10.57
2018-06-15T02:17:44.231Z,8.03
2018-06-15T02:20:13.269Z,8.77
2018-06-15T02:22:42.300Z,7.63
2018-06-15T02:25:11.354Z,8.10
2018-06-15T02:27:40.380Z,9.03
2018-06-15T02:30:09.505Z,9.53
2018-06-15T02:32:38.506Z,9.33
2018-06-15T02:35:07.543Z,10.33
2018-06-15T02:37:36.558Z,7.87
2018-06-15T02:40:05.666Z,7.87
2018-06-15T02:42:35.094Z,8.37
2018-06-15T02:45:03.756Z,6.73
2018-06-15T02:47:32.827Z,10.93
2018-06-15T02:50:01.940Z,17.73
2018-06-15T02:52:31.004Z,7.93
2018-06-15T02:55:00.155Z,9.17
2018-06-15T02:57:29.281Z,8.97
2018-06-15T02:59:58.340Z,7.47
2018-06-15T03:02:27.368Z,14.10
2018-06-15T03:04:56.399Z,6.87
2018-06-15T03:07:25.444Z,9.90
2018-06-15T03:09:54.520Z,7.77
2018-06-15T03:12:23.612Z,10.60
2018-06-15T03:14:52.744Z,7.50
2018-06-15T03:17:21.783Z,9.13
2018-06-15T03:19:50.847Z,8.17
2018-06-15T03:22:19.954Z,8.57
2018-06-15T03:24:49.053Z,10.40
2018-06-15T03:27:18.199Z,7.63
2018-06-15T03:29:47.214Z,7.40
2018-06-15T03:32:16.259Z,8.10
2018-06-15T03:34:45.363Z,8.77
2018-06-15T03:37:14.371Z,8.53
2018-06-15T03:39:43.470Z,9.03
2018-06-15T03:42:12.490Z,11.50
2018-06-15T03:44:41.510Z,10.43
2018-06-15T03:47:10.492Z,9.27
2018-06-15T03:49:39.532Z,8.70
2018-06-15T03:52:08.576Z,8.57
2018-06-15T03:54:37.596Z,9.53
2018-06-15T03:57:06.669Z,11.73
2018-06-15T03:59:35.655Z,7.60
2018-06-15T04:02:04.732Z,10.00
2018-06-15T04:04:33.768Z,9.60
2018-06-15T04:07:02.862Z,8.40
2018-06-15T04:09:31.862Z,7.77
2018-06-15T04:12:00.938Z,7.63
2018-06-15T04:14:29.983Z,8.30
2018-06-15T04:16:59.004Z,15.50
2018-06-15T04:19:28.065Z,8.93
2018-06-15T04:21:57.089Z,11.23
2018-06-15T04:24:26.123Z,8.10
2018-06-15T04:26:55.147Z,12.67
2018-06-15T04:29:24.222Z,8.23
2018-06-15T04:31:53.246Z,9.57
2018-06-15T04:34:22.304Z,9.27
2018-06-15T04:36:51.340Z,9.80
2018-06-15T04:39:20.418Z,8.00
2018-06-15T04:41:49.476Z,8.90
2018-06-15T04:44:18.472Z,11.33
2018-06-15T04:46:47.556Z,12.83
2018-06-15T04:49:16.616Z,12.50
2018-06-15T04:51:45.672Z,12.70
2018-06-15T04:54:14.672Z,9.23
2018-06-15T04:56:43.742Z,14.77
2018-06-15T04:59:13.796Z,12.57
2018-06-15T05:01:42.859Z,11.80
2018-06-15T05:04:11.922Z,15.87
2018-06-15T05:06:40.975Z,9.00
2018-06-15T05:09:11.101Z,10.47
2018-06-15T05:11:40.447Z,10.10
2018-06-15T05:14:09.502Z,10.90
2018-06-15T05:16:38.488Z,15.77
2018-06-15T05:19:07.537Z,14.80
2018-06-15T05:21:36.604Z,10.43
2018-06-15T05:24:05.669Z,10.83
2018-06-15T05:26:34.698Z,8.83
2018-06-15T05:29:03.772Z,9.60
2018-06-15T05:31:32.902Z,12.53
2018-06-15T05:34:01.941Z,10.67
2018-06-15T05:36:30.975Z,8.43
2018-06-15T05:38:59.996Z,10.50
2018-06-15T05:41:29.125Z,9.37
2018-06-15T05:43:58.114Z,9.30
2018-06-15T05:46:27.875Z,12.53
2018-06-15T05:48:57.011Z,12.03
2018-06-15T05:51:26.099Z,10.80
2018-06-15T05:53:55.172Z,7.97
2018-06-15T05:56:24.258Z,7.47
2018-06-15T05:58:53.403Z,12.50
2018-06-15T06:01:22.506Z,14.40
2018-06-15T06:03:51.591Z,9.73
2018-06-15T06:06:20.673Z,6.93
2018-06-15T06:08:49.725Z,5.50
2018-06-15T06:11:18.754Z,7.73
2018-06-15T06:13:47.776Z,7.17
2018-06-15T06:16:16.812Z,4.20
2018-06-15T06:18:45.859Z,7.63
2018-06-15T06:21:14.964Z,6.83
2018-06-15T06:23:44.004Z,6.07
2018-06-15T06:26:13.032Z,5.43
2018-06-15T06:28:42.059Z,6.17
2018-06-15T06:31:11.133Z,6.37
2018-06-15T06:33:40.187Z,5.80
2018-06-15T06:36:09.239Z,5.30
2018-06-15T06:38:38.702Z,5.50
2018-06-15T06:41:07.789Z,6.10
2018-06-15T06:43:36.983Z,5.43
2018-06-15T06:46:05.995Z,5.80
2018-06-15T06:48:35.038Z,5.30
2018-06-15T06:51:04.083Z,6.00
2018-06-15T06:53:33.157Z,6.43
2018-06-15T06:56:02.176Z,5.83
2018-06-15T06:58:31.242Z,7.60
2018-06-15T07:01:00.257Z,6.70
2018-06-15T07:03:29.348Z,6.40
2018-06-15T07:05:57.914Z,5.37
2018-06-15T07:08:26.993Z,6.43
2018-06-15T07:10:55.987Z,5.30
2018-06-15T07:13:25.065Z,5.13
2018-06-15T07:15:54.144Z,13.83
2018-06-15T07:18:23.139Z,9.23
2018-06-15T07:20:52.173Z,5.50
2018-06-15T07:23:21.173Z,5.33
2018-06-15T07:25:50.206Z,5.97
2018-06-15T07:28:19.240Z,5.53
2018-06-15T07:30:48.282Z,6.00
2018-06-15T07:33:17.279Z,4.47
2018-06-15T07:35:46.347Z,8.47
2018-06-15T07:38:15.357Z,7.10
2018-06-15T07:40:44.435Z,5.73
2018-06-15T07:43:13.486Z,5.73
2018-06-15T07:45:42.710Z,6.57
2018-06-15T07:48:12.244Z,6.33
2018-06-15T07:50:41.581Z,5.50
2018-06-15T07:53:10.724Z,6.70
2018-06-15T07:55:39.776Z,9.13
2018-06-15T07:58:08.790Z,8.83
2018-06-15T08:00:37.832Z,5.13
2018-06-15T08:03:07.036Z,5.83
2018-06-15T08:05:36.040Z,6.30
2018-06-15T08:08:05.137Z,6.03
2018-06-15T08:10:34.232Z,9.30
2018-06-15T08:13:03.257Z,5.50
2018-06-15T08:15:32.279Z,6.37
2018-06-15T08:18:01.300Z,5.33
2018-06-15T08:20:30.346Z,7.63
2018-06-15T08:22:59.439Z,5.33
2018-06-15T08:25:28.476Z,5.50
2018-06-15T08:27:57.508Z,5.07
2018-06-15T08:30:26.551Z,8.87
2018-06-15T08:32:55.570Z,5.80
2018-06-15T08:35:24.603Z,5.17
2018-06-15T08:37:53.655Z,5.70
2018-06-15T08:40:22.756Z,5.03
2018-06-15T08:42:51.804Z,4.80
2018-06-15T08:45:20.858Z,4.70
2018-06-15T08:47:49.442Z,5.53
2018-06-15T08:50:18.435Z,4.40
2018-06-15T08:52:47.505Z,5.13
2018-06-15T08:55:16.522Z,5.73
2018-06-15T08:57:45.600Z,4.97
2018-06-15T09:00:14.751Z,5.53
2018-06-15T09:02:43.841Z,6.33
2018-06-15T09:05:12.937Z,5.63
2018-06-15T09:07:41.968Z,5.07
2018-06-15T09:10:11.010Z,6.10
2018-06-15T09:12:40.040Z,6.17
2018-06-15T09:15:09.085Z,8.10
2018-06-15T09:17:38.103Z,7.33
2018-06-15T09:20:07.205Z,6.33
2018-06-15T09:22:36.238Z,7.77
2018-06-15T09:25:05.239Z,6.37
2018-06-15T09:27:34.278Z,5.87
2018-06-15T09:30:03.336Z,8.63
2018-06-15T09:32:32.403Z,4.53
2018-06-15T09:35:01.485Z,4.43
2018-06-15T09:37:30.047Z,3.77
2018-06-15T09:39:59.066Z,4.77
2018-06-15T09:42:28.204Z,4.13
2018-06-15T09:44:57.281Z,10.33
2018-06-15T09:47:26.386Z,5.03
2018-06-15T09:49:55.533Z,4.87
2018-06-15T09:52:24.635Z,5.60
2018-06-15T09:54:53.703Z,6.97
2018-06-15T09:57:22.748Z,14.83
2018-06-15T09:59:51.844Z,6.87
2018-06-15T10:02:20.848Z,5.30
2018-06-15T10:04:49.993Z,4.53
2018-06-15T10:07:19.183Z,6.37
2018-06-15T10:09:48.195Z,6.00
2018-06-15T10:12:17.236Z,4.60
2018-06-15T10:14:46.287Z,8.47
2018-06-15T10:17:15.344Z,6.20
2018-06-15T10:19:44.427Z,5.77
2018-06-15T10:22:13.484Z,7.60
2018-06-15T10:24:42.498Z,4.00
2018-06-15T10:27:11.605Z,7.37
2018-06-15T10:29:40.642Z,5.57
2018-06-15T10:32:09.666Z,6.30
2018-06-15T10:34:38.708Z,6.73
2018-06-15T10:37:07.723Z,6.40
2018-06-15T10:39:36.800Z,8.67
2018-06-15T10:42:05.862Z,5.43
2018-06-15T10:44:34.932Z,8.67
2018-06-15T10:47:03.981Z,6.53
2018-06-15T10:49:33.043Z,9.50
2018-06-15T10:52:02.748Z,5.50
2018-06-15T10:54:31.773Z,5.20
2018-06-15T10:57:00.841Z,9.13
2018-06-15T10:59:29.933Z,5.67
2018-06-15T11:01:58.999Z,5.40
2018-06-15T11:04:28.096Z,7.03
2018-06-15T11:06:57.154Z,6.77
2018-06-15T11:09:26.214Z,6.73
2018-06-15T11:11:55.302Z,6.47
2018-06-15T11:14:24.397Z,4.80
2018-06-15T11:16:53.504Z,11.43
2018-06-15T11:19:22.746Z,5.30
2018-06-15T11:21:51.729Z,4.93
2018-06-15T11:24:20.783Z,5.03
2018-06-15T11:26:49.782Z,9.57
2018-06-15T11:29:18.854Z,7.90
2018-06-15T11:31:47.895Z,8.60
2018-06-15T11:34:16.911Z,6.23
2018-06-15T11:36:45.957Z,6.03
2018-06-15T11:39:15.027Z,8.67
2018-06-15T11:41:44.083Z,7.47
2018-06-15T11:44:13.173Z,5.00
2018-06-15T11:46:42.258Z,4.87
2018-06-15T11:49:11.284Z,5.20
2018-06-15T11:51:40.303Z,11.20
2018-06-15T11:54:09.376Z,5.30
2018-06-15T11:56:38.386Z,7.30
2018-06-15T11:59:07.452Z,6.73
2018-06-15T12:01:36.485Z,5.90
2018-06-15T12:04:05.525Z,5.57
2018-06-15T12:06:34.547Z,7.80
2018-06-15T12:09:04.269Z,6.60
2018-06-15T12:11:33.264Z,6.57
2018-06-15T12:14:02.295Z,9.00
2018-06-15T12:16:31.296Z,7.00
2018-06-15T12:19:00.310Z,7.33
2018-06-15T12:21:29.330Z,7.90
2018-06-15T12:23:58.423Z,5.53
2018-06-15T12:26:27.643Z,4.63
2018-06-15T12:28:56.666Z,6.07
2018-06-15T12:31:25.794Z,6.10
2018-06-15T12:34:00.115Z,5.63
2018-06-15T12:36:29.282Z,4.60
2018-06-15T12:38:58.288Z,5.43
2018-06-15T12:41:27.349Z,8.70
2018-06-15T12:43:56.389Z,5.33
2018-06-15T12:46:25.536Z,4.00
2018-06-15T12:48:54.566Z,5.00
2018-06-15T12:51:23.584Z,4.03
2018-06-15T12:53:52.659Z,6.50
2018-06-15T12:56:21.676Z,6.33
2018-06-15T12:58:50.730Z,6.13
2018-06-15T13:01:19.787Z,4.60
2018-06-15T13:03:49.979Z,6.10
2018-06-15T13:06:19.156Z,5.93
2018-06-15T13:08:48.257Z,5.40
2018-06-15T13:11:17.350Z,4.57
2018-06-15T13:13:46.357Z,4.87
2018-06-15T13:16:15.397Z,12.13
2018-06-15T13:18:44.415Z,5.87
2018-06-15T13:21:13.490Z,3.70
2018-06-15T13:23:42.522Z,5.30
2018-06-15T13:26:11.558Z,5.07
2018-06-15T13:28:40.551Z,5.30
2018-06-15T13:31:09.558Z,8.13
2018-06-15T13:33:38.591Z,5.17
2018-06-15T13:36:07.616Z,4.93
2018-06-15T13:38:36.670Z,5.50
2018-06-15T13:41:05.723Z,5.50
2018-06-15T13:43:34.817Z,4.40
2018-06-15T13:46:03.841Z,5.67
2018-06-15T13:48:32.874Z,4.33
2018-06-15T13:51:01.895Z,3.33
2018-06-15T13:53:30.945Z,5.80
2018-06-15T13:55:59.978Z,4.70
2018-06-15T13:58:29.016Z,5.57
2018-06-15T14:00:57.539Z,6.20
2018-06-15T14:03:26.547Z,4.43
2018-06-15T14:05:55.581Z,7.90
2018-06-15T14:08:24.589Z,5.33
2018-06-15T14:10:54.415Z,10.93
2018-06-15T14:13:23.465Z,4.17
2018-06-15T14:15:52.551Z,4.97
2018-06-15T14:18:21.569Z,3.30
2018-06-15T14:20:50.620Z,6.97
2018-06-15T14:23:19.660Z,10.90
2018-06-15T14:25:48.699Z,4.47
2018-06-15T14:28:17.763Z,3.87
2018-06-15T14:30:46.832Z,5.40
2018-06-15T14:33:15.902Z,4.73
2018-06-15T14:35:44.893Z,4.20
2018-06-15T14:38:13.920Z,7.30
2018-06-15T14:40:42.952Z,8.60
2018-06-15T14:43:12.021Z,4.93
2018-06-15T14:45:41.053Z,3.70
2018-06-15T14:48:10.264Z,5.33
2018-06-15T14:50:39.248Z,6.13
2018-06-15T14:53:08.284Z,4.37
2018-06-15T14:55:37.384Z,4.43
2018-06-15T14:58:06.374Z,3.17
2018-06-15T15:00:35.423Z,3.60
2018-06-15T15:03:04.435Z,7.73
2018-06-15T15:05:33.484Z,3.27
2018-06-15T15:08:02.538Z,5.30
2018-06-15T15:10:31.565Z,4.37
2018-06-15T15:13:00.627Z,5.87
2018-06-15T15:15:30.327Z,5.53
2018-06-15T15:17:59.387Z,4.80
2018-06-15T15:20:28.586Z,3.80
2018-06-15T15:22:57.627Z,3.37
2018-06-15T15:25:26.623Z,3.63
2018-06-15T15:27:55.651Z,6.10
2018-06-15T15:30:24.643Z,4.10
2018-06-15T15:32:53.672Z,3.70
2018-06-15T15:35:22.671Z,3.67
2018-06-15T15:37:51.903Z,4.80
2018-06-15T15:40:20.909Z,4.10
2018-06-15T15:42:49.953Z,5.20
2018-06-15T15:45:18.988Z,3.67
2018-06-15T15:47:48.102Z,4.17
2018-06-15T15:50:17.150Z,4.30
2018-06-15T15:52:46.807Z,3.80
2018-06-15T15:55:15.857Z,4.17
2018-06-15T15:57:44.880Z,4.43
2018-06-15T16:00:13.954Z,3.50
2018-06-15T16:02:42.973Z,4.70
2018-06-15T16:05:12.032Z,5.20
2018-06-15T16:07:41.034Z,5.20
2018-06-15T16:10:10.099Z,3.87
2018-06-15T16:12:39.163Z,3.80
2018-06-15T16:15:08.164Z,4.20
2018-06-15T16:17:37.228Z,4.00
2018-06-15T16:20:06.293Z,4.43
2018-06-15T16:22:35.341Z,5.33
2018-06-15T16:25:04.368Z,3.53
2018-06-15T16:27:33.408Z,4.57
2018-06-15T16:30:02.494Z,3.30
2018-06-15T16:32:31.529Z,5.63
2018-06-15T16:35:00.558Z,3.93
2018-06-15T16:37:29.643Z,4.83
2018-06-15T16:39:58.689Z,5.73
2018-06-15T16:42:27.742Z,3.73
2018-06-15T16:44:56.858Z,4.57
2018-06-15T16:47:25.847Z,7.17
2018-06-15T16:49:54.888Z,4.57
2018-06-15T16:52:23.948Z,3.60
2018-06-15T16:54:53.140Z,4.60
2018-06-15T16:57:21.758Z,7.90
2018-06-15T16:59:50.844Z,3.50
2018-06-15T17:02:20.235Z,3.60
2018-06-15T17:04:49.323Z,3.83
2018-06-15T17:07:18.364Z,4.10
2018-06-15T17:09:47.502Z,4.30
2018-06-15T17:12:16.524Z,4.10
2018-06-15T17:14:45.545Z,3.93
2018-06-15T17:17:14.575Z,3.93
2018-06-15T17:19:43.620Z,4.13
2018-06-15T17:22:12.735Z,4.00
2018-06-15T17:24:41.752Z,3.47
2018-06-15T17:27:10.777Z,3.43
2018-06-15T17:29:39.818Z,4.27
2018-06-15T17:32:09.099Z,3.80
2018-06-15T17:34:38.149Z,3.50
2018-06-15T17:37:07.188Z,3.60
2018-06-15T17:39:36.257Z,3.17
2018-06-15T17:42:05.310Z,3.40
2018-06-15T17:44:34.367Z,3.20
2018-06-15T17:47:03.386Z,3.43
2018-06-15T17:49:32.423Z,3.27
2018-06-15T17:52:01.425Z,3.90
2018-06-15T17:54:30.486Z,4.43
2018-06-15T17:56:59.498Z,4.30
2018-06-15T17:59:28.528Z,3.80
2018-06-15T18:01:57.553Z,3.97
2018-06-15T18:04:26.540Z,4.23
2018-06-15T18:06:55.568Z,4.63
2018-06-15T18:09:24.575Z,2.80
2018-06-15T18:11:53.628Z,4.60
2018-06-15T18:14:22.619Z,3.50
2018-06-15T18:16:51.655Z,3.13
2018-06-15T18:19:20.666Z,3.70
2018-06-15T18:21:49.730Z,3.07
2018-06-15T18:24:18.776Z,7.87
2018-06-15T18:26:47.778Z,3.10
2018-06-15T18:29:16.833Z,3.70
2018-06-15T18:31:45.874Z,3.20
2018-06-15T18:34:14.985Z,3.50
2018-06-15T18:36:44.052Z,3.43
2018-06-15T18:39:14.614Z,3.70
2018-06-15T18:41:44.212Z,2.93
2018-06-15T18:44:13.290Z,8.53
2018-06-15T18:46:42.325Z,3.50
2018-06-15T18:49:11.315Z,3.60
2018-06-15T18:51:40.335Z,3.70
2018-06-15T18:54:09.365Z,3.30
2018-06-15T18:56:38.551Z,4.23
2018-06-15T18:59:07.560Z,3.43
2018-06-15T19:01:36.640Z,4.60
2018-06-15T19:04:05.717Z,5.60
2018-06-15T19:06:34.740Z,7.37
2018-06-15T19:09:04.969Z,3.53
2018-06-15T19:11:33.966Z,5.20
2018-06-15T19:14:03.049Z,22.40
2018-06-15T19:16:32.070Z,11.67
2018-06-15T19:19:01.088Z,6.93
2018-06-15T19:21:30.247Z,5.70
2018-06-15T19:23:59.280Z,5.73
2018-06-15T19:26:28.337Z,5.53
2018-06-15T19:28:57.418Z,6.07
2018-06-15T19:31:26.452Z,12.20
2018-06-15T19:33:55.649Z,6.60
2018-06-15T19:36:24.200Z,4.20
2018-06-15T19:38:53.275Z,10.70
2018-06-15T19:41:22.337Z,16.17
2018-06-15T19:43:51.375Z,16.57
2018-06-15T19:46:20.448Z,8.17
2018-06-15T19:48:49.516Z,12.23
2018-06-15T19:51:18.605Z,13.43
2018-06-15T19:53:47.619Z,9.83
2018-06-15T19:56:16.660Z,9.67
2018-06-15T19:58:45.699Z,26.10
2018-06-15T20:01:14.831Z,40.57
2018-06-15T20:03:43.877Z,42.93
2018-06-15T20:06:12.893Z,27.30
2018-06-15T20:08:41.928Z,12.73
2018-06-15T20:11:10.499Z,12.13
2018-06-15T20:13:39.532Z,7.27
2018-06-15T20:16:08.561Z,7.47
2018-06-15T20:18:37.591Z,10.43
2018-06-15T20:21:06.707Z,11.03
2018-06-15T20:23:35.779Z,23.40
2018-06-15T20:26:04.877Z,20.57
2018-06-15T20:28:33.896Z,28.23
2018-06-15T20:31:02.971Z,12.13
2018-06-15T20:33:31.988Z,33.20
2018-06-15T20:36:01.074Z,27.70
2018-06-15T20:38:30.102Z,11.83
2018-06-15T20:40:59.139Z,11.43
2018-06-15T20:43:28.194Z,6.83
2018-06-15T20:45:57.247Z,10.40
2018-06-15T20:48:26.282Z,15.47
2018-06-15T20:50:55.293Z,14.27
2018-06-15T20:53:24.368Z,9.60
2018-06-15T20:55:53.390Z,10.90
2018-06-15T20:58:22.453Z,17.20
2018-06-15T21:00:51.499Z,27.80
2018-06-15T21:03:20.525Z,19.00
2018-06-15T21:05:49.538Z,10.40
2018-06-15T21:08:18.577Z,11.40
2018-06-15T21:10:47.602Z,8.93
2018-06-15T21:13:16.638Z,9.50
2018-06-15T21:15:45.678Z,10.67
2018-06-15T21:18:14.741Z,25.60
2018-06-15T21:20:43.799Z,19.90
2018-06-15T21:23:12.839Z,14.90
2018-06-15T21:25:41.892Z,27.23
2018-06-15T21:28:11.246Z,11.47
2018-06-15T21:30:40.431Z,11.07
2018-06-15T21:33:09.415Z,20.90
2018-06-15T21:35:38.484Z,11.20
2018-06-15T21:38:07.548Z,9.77
2018-06-15T21:40:36.569Z,14.80
2018-06-15T21:43:05.611Z,12.90
2018-06-15T21:45:34.762Z,16.50
2018-06-15T21:48:03.808Z,11.57
2018-06-15T21:50:32.898Z,14.80
2018-06-15T21:53:02.026Z,12.63
2018-06-15T21:55:31.199Z,18.80
2018-06-15T21:58:00.279Z,21.57
2018-06-15T22:00:29.366Z,32.70
2018-06-15T22:02:58.422Z,24.23
2018-06-15T22:05:27.456Z,23.30
2018-06-15T22:07:56.519Z,21.47
2018-06-15T22:10:25.649Z,17.00
2018-06-15T22:12:54.714Z,18.00
2018-06-15T22:15:24.357Z,15.50
2018-06-15T22:17:53.436Z,32.73
2018-06-15T22:20:22.547Z,44.97
2018-06-15T22:22:51.623Z,36.10
2018-06-15T22:25:20.760Z,29.23
2018-06-15T22:27:49.807Z,23.33
2018-06-15T22:30:18.859Z,26.27
2018-06-15T22:32:47.898Z,59.03
2018-06-15T22:35:16.914Z,42.13
2018-06-15T22:37:45.954Z,89.70
2018-06-15T22:40:14.988Z,22.77
2018-06-15T22:42:44.064Z,45.17
2018-06-15T22:45:13.102Z,49.97
2018-06-15T22:47:42.166Z,74.97
2018-06-15T22:50:11.245Z,28.80
2018-06-15T22:52:40.298Z,18.90
2018-06-15T22:55:09.325Z,27.10
2018-06-15T22:57:38.360Z,27.47
2018-06-15T23:00:07.622Z,22.37
2018-06-15T23:02:36.715Z,15.73
2018-06-15T23:05:05.846Z,14.20
2018-06-15T23:07:34.925Z,14.70
2018-06-15T23:10:04.103Z,38.97
2018-06-15T23:12:33.137Z,20.40
2018-06-15T23:15:03.069Z,21.40
2018-06-15T23:17:32.214Z,18.97
2018-06-15T23:20:01.453Z,21.93
2018-06-15T23:22:30.516Z,22.93
2018-06-15T23:24:59.608Z,27.50
2018-06-15T23:27:28.912Z,30.93
2018-06-15T23:29:58.260Z,47.20
2018-06-15T23:32:27.714Z,25.37
2018-06-15T23:34:56.326Z,15.40
2018-06-15T23:37:25.356Z,17.30
2018-06-15T23:39:54.382Z,18.53
2018-06-15T23:42:23.494Z,25.63
2018-06-15T23:44:52.647Z,24.77
2018-06-15T23:47:21.670Z,16.43
2018-06-15T23:49:50.263Z,17.60
2018-06-15T23:52:19.303Z,15.90
2018-06-15T23:54:48.362Z,21.07
2018-06-15T23:57:17.371Z,19.93
2018-06-15T23:59:46.430Z,23.03
